Time;durP1;ratioP1;P1;durP2;ratioP2;P2;SDS_P1;SDS_P2;PMS_P1;PMS_P2;Temp;Humidity;BMP_temperature;BMP_pressure;BME280_temperature;BME280_humidity;BME280_pressure;Samples;Min_cycle;Max_cycle;Signal;HPM_P1;HPM_P2
2023/04/30 00:01:37;;;;;;;;;;;;;;;24.28;49.35;96648.45;619402;228;62929;-59
2023/04/30 00:04:04;;;;;;;;;;;;;;;24.27;47.95;96646.06;618691;228;68476;-59
2023/04/30 00:06:32;;;;;;;;;;;;;;;24.26;48.35;96642.59;619794;228;68749;-59
2023/04/30 00:08:59;;;;;;;;;;;;;;;24.26;49.48;96647.95;618291;229;64997;-59
2023/04/30 00:11:27;;;;;;;;;;;;;;;24.26;48.84;96644.48;619788;228;68498;-59
2023/04/30 00:13:55;;;;;;;;;;;;;;;24.25;48.63;96649.03;618796;228;68153;-59
2023/04/30 00:16:23;;;;;;;;;;;;;;;24.24;48.82;96636.72;618358;227;63009;-59
2023/04/30 00:18:51;;;;;;;;;;;;;;;24.25;50.13;96648.24;619243;229;65780;-59
2023/04/30 00:21:18;;;;;;;;;;;;;;;24.24;50.77;96644.77;619171;229;68287;-59
2023/04/30 00:23:46;;;;;;;;;;;;;;;24.24;51.02;96643.98;619118;228;66072;-59
2023/04/30 00:26:14;;;;;;;;;;;;;;;24.21;49.26;96633.84;619128;229;68631;-59
2023/04/30 00:28:43;;;;;;;;;;;;;;;24.21;48.75;96636.53;619187;227;68071;-59
2023/04/30 00:31:11;;;;;;;;;;;;;;;24.20;48.78;96640.30;619827;227;66011;-59
2023/04/30 00:33:38;;;;;;;;;;;;;;;24.19;49.37;96644.88;618743;228;69121;-59
2023/04/30 00:36:06;;;;;;;;;;;;;;;24.19;50.67;96644.88;619156;229;68591;-59
2023/04/30 00:38:33;;;;;;;;;;;;;;;24.18;50.12;96642.50;619161;229;65103;-59
2023/04/30 00:41:01;;;;;;;;;;;;;;;24.18;50.08;96643.30;618221;229;68596;-59
2023/04/30 00:43:28;;;;;;;;;;;;;;;24.18;48.94;96645.98;619174;227;68527;-59
2023/04/30 00:45:57;;;;;;;;;;;;;;;24.18;50.34;96639.82;619476;228;64849;-59
2023/04/30 00:48:25;;;;;;;;;;;;;;;24.17;49.70;96638.21;619006;228;68349;-59
2023/04/30 00:50:53;;;;;;;;;;;;;;;24.17;49.71;96632.84;618308;228;68520;-59
2023/04/30 00:53:20;;;;;;;;;;;;;;;24.14;49.29;96629.69;619126;228;64853;-60
2023/04/30 00:55:48;;;;;;;;;;;;;;;24.14;48.27;96629.69;617705;229;66024;-59
2023/04/30 00:58:16;;;;;;;;;;;;;;;24.14;50.96;96626.18;619611;228;66203;-59
2023/04/30 01:00:45;;;;;;;;;;;;;;;24.13;49.85;96620.02;618642;227;64961;-60
2023/04/30 01:03:15;;;;;;;;;;;;;;;24.11;47.57;96624.89;619191;229;68650;-59
2023/04/30 01:05:43;;;;;;;;;;;;;;;24.12;50.30;96623.81;619612;227;68216;-59
2023/04/30 01:08:11;;;;;;;;;;;;;;;24.11;49.49;96622.20;618143;228;65114;-59
2023/04/30 01:10:43;;;;;;;;;;;;;;;24.12;49.94;96626.50;619146;229;66283;-59
2023/04/30 01:13:12;;;;;;;;;;;;;;;24.11;49.55;96621.41;619579;228;68509;-59
2023/04/30 01:15:56;;;;;;;;;;;;;;;24.10;50.52;96620.62;618561;228;65205;-58
2023/04/30 01:18:25;;;;;;;;;;;;;;;24.09;50.88;96616.36;618865;227;66868;-58
2023/04/30 01:20:56;;;;;;;;;;;;;;;24.08;48.24;96617.44;619366;227;71748;-58
2023/04/30 01:23:25;;;;;;;;;;;;;;;24.08;50.08;96617.44;618879;228;64781;-58
2023/04/30 01:26:03;;;;;;;;;;;;;;;24.08;50.73;96620.12;611711;228;68456;-58
2023/04/30 01:28:32;;;;;;;;;;;;;;;24.07;50.12;96615.86;619050;228;68461;-58
2023/04/30 01:30:59;;;;;;;;;;;;;;;24.06;48.36;96614.28;619195;229;62987;-58
2023/04/30 01:33:27;;;;;;;;;;;;;;;24.06;49.95;96616.15;619141;229;68519;-58
2023/04/30 01:35:56;;;;;;;;;;;;;;;24.05;50.00;96618.05;618908;229;68784;-58
2023/04/30 01:38:41;;;;;;;;;;;;;;;24.06;50.25;96616.97;617317;227;64762;-59
2023/04/30 01:41:26;;;;;;;;;;;;;;;24.05;49.96;96611.89;619209;227;68887;-59
2023/04/30 01:44:13;;;;;;;;;;;;;;;24.03;50.58;96614.86;619419;228;69419;-58
2023/04/30 01:46:42;;;;;;;;;;;;;;;24.03;50.63;96614.86;618236;228;63064;-59
2023/04/30 01:49:11;;;;;;;;;;;;;;;24.02;49.09;96613.28;619529;228;68710;-59
2023/04/30 01:51:42;;;;;;;;;;;;;;;24.02;50.94;96623.23;619261;228;68490;-59
2023/04/30 01:54:27;;;;;;;;;;;;;;;24.01;49.71;96622.44;617865;228;65402;-58
2023/04/30 01:56:56;;;;;;;;;;;;;;;23.99;48.39;96624.63;618234;228;68669;-59
2023/04/30 01:59:24;;;;;;;;;;;;;;;24.00;50.45;96628.09;618415;227;68885;-59
2023/04/30 02:01:51;;;;;;;;;;;;;;;24.00;50.07;96628.09;619154;228;66029;-59
2023/04/30 02:04:18;;;;;;;;;;;;;;;23.99;51.13;96627.30;619780;227;68820;-59
2023/04/30 02:06:46;;;;;;;;;;;;;;;23.98;49.42;96624.91;619708;228;68781;-59
2023/04/30 02:09:13;;;;;;;;;;;;;;;23.99;50.21;96629.98;619127;229;64878;-59
2023/04/30 02:11:41;;;;;;;;;;;;;;;23.97;48.48;96634.85;618174;228;68776;-58
2023/04/30 02:14:09;;;;;;;;;;;;;;;23.97;49.74;96634.06;619250;228;69129;-58
2023/04/30 02:16:37;;;;;;;;;;;;;;;23.96;51.13;96635.17;618886;229;62965;-58
2023/04/30 02:19:04;;;;;;;;;;;;;;;23.96;48.74;96630.59;619153;228;66694;-59
2023/04/30 02:21:32;;;;;;;;;;;;;;;23.95;50.23;96634.34;619259;228;68651;-58
2023/04/30 02:23:59;;;;;;;;;;;;;;;23.95;50.12;96633.56;617629;229;64831;-59
2023/04/30 02:26:27;;;;;;;;;;;;;;;23.94;51.53;96627.41;610220;231;68742;-59
2023/04/30 02:28:54;;;;;;;;;;;;;;;23.92;50.58;96633.05;615688;228;69579;-58
2023/04/30 02:31:22;;;;;;;;;;;;;;;23.92;49.74;96632.27;617448;228;64913;-59
2023/04/30 02:33:49;;;;;;;;;;;;;;;23.93;50.55;96631.19;611728;229;71947;-59
2023/04/30 02:36:17;;;;;;;;;;;;;;;23.92;51.39;96630.38;614557;229;68657;-59
2023/04/30 02:38:44;;;;;;;;;;;;;;;23.91;48.31;96634.16;619008;227;64858;-59
2023/04/30 02:41:12;;;;;;;;;;;;;;;23.91;50.43;96634.16;618156;229;66204;-59
2023/04/30 02:43:40;;;;;;;;;;;;;;;23.91;51.46;96630.69;619400;227;68659;-59
2023/04/30 02:46:07;;;;;;;;;;;;;;;23.89;49.92;96630.98;619127;229;65780;-58
2023/04/30 02:48:35;;;;;;;;;;;;;;;23.89;50.22;96630.98;619516;228;68312;-58
2023/04/30 02:51:03;;;;;;;;;;;;;;;23.90;50.40;96634.48;619073;228;67299;-58
2023/04/30 02:53:31;;;;;;;;;;;;;;;23.89;50.30;96636.34;619099;228;65158;-59
2023/04/30 02:55:58;;;;;;;;;;;;;;;23.90;51.66;96637.16;613919;227;67944;-59
2023/04/30 02:58:26;;;;;;;;;;;;;;;23.88;49.60;96634.77;618888;228;66610;-59
2023/04/30 03:00:53;;;;;;;;;;;;;;;23.86;49.63;96631.58;620295;228;62918;-59
2023/04/30 03:03:21;;;;;;;;;;;;;;;23.87;50.47;96632.37;617851;229;69597;-59
2023/04/30 03:05:48;;;;;;;;;;;;;;;23.86;50.58;96625.42;619406;228;66752;-59
2023/04/30 03:08:17;;;;;;;;;;;;;;;23.86;51.21;96636.16;619247;228;65520;-58
2023/04/30 03:10:44;;;;;;;;;;;;;;;23.85;49.29;96634.58;619187;229;68748;-58
2023/04/30 03:13:11;;;;;;;;;;;;;;;23.84;50.27;96630.28;619134;229;68673;-59
2023/04/30 03:15:39;;;;;;;;;;;;;;;23.84;50.56;96633.75;618066;228;65341;-58
2023/04/30 03:18:07;;;;;;;;;;;;;;;23.83;51.07;96634.86;610470;230;69532;-58
2023/04/30 03:20:34;;;;;;;;;;;;;;;23.83;50.00;96642.12;616903;228;68603;-58
2023/04/30 03:23:02;;;;;;;;;;;;;;;23.82;48.65;96643.22;618277;228;65988;-58
2023/04/30 03:25:29;;;;;;;;;;;;;;;23.82;50.55;96637.86;619298;228;69610;-59
2023/04/30 03:27:57;;;;;;;;;;;;;;;23.83;50.71;96644.80;619151;229;68738;-58
2023/04/30 03:30:25;;;;;;;;;;;;;;;23.81;51.29;96638.93;618760;229;62902;-58
2023/04/30 03:32:53;;;;;;;;;;;;;;;23.81;50.66;96636.25;618761;227;66297;-58
2023/04/30 03:35:21;;;;;;;;;;;;;;;23.80;49.88;96648.09;618858;229;68507;-59
2023/04/30 03:37:48;;;;;;;;;;;;;;;23.80;50.77;96648.09;618734;229;62708;-58
2023/04/30 03:40:16;;;;;;;;;;;;;;;23.78;47.72;96661.78;619804;227;68755;-58
2023/04/30 03:42:43;;;;;;;;;;;;;;;23.78;48.88;96661.78;618910;227;68848;-58
2023/04/30 03:45:11;;;;;;;;;;;;;;;23.79;51.84;96665.27;619133;229;65828;-58
2023/04/30 03:47:39;;;;;;;;;;;;;;;23.78;50.80;96677.09;619081;229;68899;-58
2023/04/30 03:50:07;;;;;;;;;;;;;;;23.76;50.10;96672.02;619082;229;68518;-58
2023/04/30 03:52:35;;;;;;;;;;;;;;;23.77;51.31;96676.30;619160;229;65125;-58
2023/04/30 03:55:04;;;;;;;;;;;;;;;23.77;49.80;96683.56;618292;229;68687;-59
2023/04/30 03:57:32;;;;;;;;;;;;;;;23.76;48.71;96679.27;618976;227;68963;-58
2023/04/30 04:00:00;;;;;;;;;;;;;;;23.75;50.34;96683.84;619137;229;62918;-59
2023/04/30 04:02:27;;;;;;;;;;;;;;;23.76;52.27;96688.11;620150;227;66990;-59
2023/04/30 04:04:56;;;;;;;;;;;;;;;23.74;50.74;96686.84;618848;228;66173;-59
2023/04/30 04:07:23;;;;;;;;;;;;;;;23.74;50.93;96687.64;620588;227;62978;-59
2023/04/30 04:09:51;;;;;;;;;;;;;;;23.74;50.97;96686.84;619603;227;68850;-59
2023/04/30 04:12:19;;;;;;;;;;;;;;;23.72;51.51;96689.81;619321;228;67272;-59
2023/04/30 04:14:46;;;;;;;;;;;;;;;23.72;49.48;96689.81;619340;228;64937;-59
2023/04/30 04:17:14;;;;;;;;;;;;;;;23.71;49.92;96688.23;619166;229;68682;-59
2023/04/30 04:19:43;;;;;;;;;;;;;;;23.69;49.63;96693.06;618920;229;68989;-59
2023/04/30 04:22:11;;;;;;;;;;;;;;;23.69;51.19;96691.17;618898;229;65677;-59
2023/04/30 04:24:39;;;;;;;;;;;;;;;23.70;50.74;96697.32;618667;229;66287;-59
2023/04/30 04:27:06;;;;;;;;;;;;;;;23.68;50.79;96689.59;619859;227;68300;-59
2023/04/30 04:29:34;;;;;;;;;;;;;;;23.68;50.83;96696.81;618325;227;63013;-58
2023/04/30 04:32:04;;;;;;;;;;;;;;;23.67;49.38;96696.02;618448;228;68342;-59
2023/04/30 04:34:32;;;;;;;;;;;;;;;23.66;51.11;96697.12;619919;227;68940;-59
2023/04/30 04:37:00;;;;;;;;;;;;;;;23.67;49.65;96692.55;619631;228;62744;-59
2023/04/30 04:39:28;;;;;;;;;;;;;;;23.66;49.10;96696.34;618303;228;68599;-58
2023/04/30 04:41:55;;;;;;;;;;;;;;;23.66;49.59;96702.49;618499;228;66167;-58
2023/04/30 04:44:22;;;;;;;;;;;;;;;23.65;51.63;96695.55;619797;228;62739;-59
2023/04/30 04:46:52;;;;;;;;;;;;;;;23.64;51.06;96704.66;618515;229;65774;-59
2023/04/30 04:49:20;;;;;;;;;;;;;;;23.65;51.35;96697.41;617567;229;65893;-59
2023/04/30 04:51:48;;;;;;;;;;;;;;;23.64;50.67;96693.94;619824;228;65855;-59
2023/04/30 04:54:16;;;;;;;;;;;;;;;23.62;50.14;96698.80;619262;228;69422;-58
2023/04/30 04:56:43;;;;;;;;;;;;;;;23.62;51.43;96696.11;618203;228;68921;-59
2023/04/30 04:59:11;;;;;;;;;;;;;;;23.63;51.19;96691.56;619233;229;65118;-59
2023/04/30 05:01:38;;;;;;;;;;;;;;;23.62;50.54;96698.80;619640;228;68784;-59
2023/04/30 05:04:08;;;;;;;;;;;;;;;23.60;50.84;96692.95;618557;228;66311;-59
2023/04/30 05:06:35;;;;;;;;;;;;;;;23.61;51.27;96693.73;618374;228;63607;-58
2023/04/30 05:09:05;;;;;;;;;;;;;;;23.59;51.74;96702.07;619654;228;66434;-59
2023/04/30 05:11:32;;;;;;;;;;;;;;;23.60;52.11;96692.13;618197;227;66378;-59
2023/04/30 05:13:59;;;;;;;;;;;;;;;23.58;51.10;96683.61;619448;228;65223;-59
2023/04/30 05:16:27;;;;;;;;;;;;;;;23.58;50.50;96683.61;619437;228;66374;-59
2023/04/30 05:18:54;;;;;;;;;;;;;;;23.57;50.99;96690.86;619180;229;66694;-59
2023/04/30 05:21:22;;;;;;;;;;;;;;;23.57;49.85;96698.91;617983;229;63008;-59
2023/04/30 05:23:49;;;;;;;;;;;;;;;23.57;51.88;96698.91;620058;228;69001;-59
2023/04/30 05:26:17;;;;;;;;;;;;;;;23.55;49.39;96684.99;619806;228;66569;-59
2023/04/30 05:28:44;;;;;;;;;;;;;;;23.56;50.97;96688.46;619152;228;62972;-59
2023/04/30 05:31:12;;;;;;;;;;;;;;;23.54;49.99;96688.75;619403;227;68795;-59
2023/04/30 05:33:39;;;;;;;;;;;;;;;23.54;51.72;96686.06;619803;228;68794;-58
2023/04/30 05:36:07;;;;;;;;;;;;;;;23.53;50.60;96691.73;617673;229;65029;-58
2023/04/30 05:38:35;;;;;;;;;;;;;;;23.53;51.49;96689.05;618809;227;68782;-59
2023/04/30 05:41:02;;;;;;;;;;;;;;;23.53;51.69;96678.33;619688;228;68699;-59
2023/04/30 05:43:29;;;;;;;;;;;;;;;23.53;53.11;96679.12;618767;228;62930;-59
2023/04/30 05:45:57;;;;;;;;;;;;;;;23.51;51.32;96692.02;617628;228;68735;-59
2023/04/30 05:48:25;;;;;;;;;;;;;;;23.51;50.08;96680.50;619548;228;66529;-59
2023/04/30 05:50:52;;;;;;;;;;;;;;;23.51;51.69;96675.14;618842;227;65009;-59
2023/04/30 05:53:20;;;;;;;;;;;;;;;23.50;51.44;96687.76;619168;227;68747;-59
2023/04/30 05:55:47;;;;;;;;;;;;;;;23.50;51.04;96671.67;619726;228;68609;-59
2023/04/30 05:58:15;;;;;;;;;;;;;;;23.49;50.69;96676.23;619878;228;65032;-58
2023/04/30 06:00:43;;;;;;;;;;;;;;;23.49;50.07;96675.45;618195;228;68684;-59
2023/04/30 06:03:10;;;;;;;;;;;;;;;23.48;50.70;96673.84;619230;229;68160;-59
2023/04/30 06:05:40;;;;;;;;;;;;;;;23.48;51.11;96674.62;617637;229;62891;-58
2023/04/30 06:08:07;;;;;;;;;;;;;;;23.48;51.12;96681.88;619986;227;66349;-58
2023/04/30 06:10:34;;;;;;;;;;;;;;;23.46;48.13;96667.97;618325;228;68826;-59
2023/04/30 06:13:02;;;;;;;;;;;;;;;23.46;50.25;96678.70;619832;228;65088;-59
2023/04/30 06:15:30;;;;;;;;;;;;;;;23.46;51.53;96678.70;618060;228;66406;-58
2023/04/30 06:17:58;;;;;;;;;;;;;;;23.46;51.77;96679.52;618362;228;70592;-58
2023/04/30 06:20:26;;;;;;;;;;;;;;;23.46;51.88;96681.38;619048;228;63136;-59
2023/04/30 06:22:53;;;;;;;;;;;;;;;23.46;50.10;96684.87;619136;227;68636;-59
2023/04/30 06:25:21;;;;;;;;;;;;;;;23.45;50.83;96683.27;617778;227;68706;-59
2023/04/30 06:27:50;;;;;;;;;;;;;;;23.44;50.17;96680.90;621001;227;65125;-59
2023/04/30 06:30:20;;;;;;;;;;;;;;;23.45;48.64;96688.63;619131;229;66347;-58
2023/04/30 06:32:47;;;;;;;;;;;;;;;23.46;51.36;96686.74;619160;229;66597;-59
2023/04/30 06:35:15;;;;;;;;;;;;;;;23.44;50.96;96684.38;619156;229;63015;-59
2023/04/30 06:37:42;;;;;;;;;;;;;;;23.46;51.20;96692.10;617809;229;68996;-58
2023/04/30 06:40:10;;;;;;;;;;;;;;;23.45;51.93;96688.63;621215;227;66405;-58
2023/04/30 06:42:37;;;;;;;;;;;;;;;23.45;52.28;96685.16;619167;229;64889;-59
2023/04/30 06:45:08;;;;;;;;;;;;;;;23.45;51.47;96687.84;618943;228;68930;-59
2023/04/30 06:47:37;;;;;;;;;;;;;;;23.45;51.20;96679.80;619363;227;66669;-58
2023/04/30 06:50:04;;;;;;;;;;;;;;;23.45;51.80;96680.59;618926;227;65108;-59
2023/04/30 06:52:32;;;;;;;;;;;;;;;23.44;52.75;96684.38;610348;228;68818;-59
2023/04/30 06:54:59;;;;;;;;;;;;;;;23.45;51.90;96685.16;620173;228;68697;-59
2023/04/30 06:57:27;;;;;;;;;;;;;;;23.43;50.17;96690.80;619011;228;64860;-59
2023/04/30 06:59:55;;;;;;;;;;;;;;;23.43;50.82;96684.66;613218;229;68846;-59
2023/04/30 07:02:23;;;;;;;;;;;;;;;23.44;52.09;96683.58;617127;229;66766;-59
2023/04/30 07:04:50;;;;;;;;;;;;;;;23.42;51.02;96680.39;618917;227;65086;-58
2023/04/30 07:07:18;;;;;;;;;;;;;;;23.43;51.28;96681.97;619146;229;68657;-58
2023/04/30 07:09:45;;;;;;;;;;;;;;;23.42;52.12;96686.55;618199;227;69058;-58
2023/04/30 07:12:13;;;;;;;;;;;;;;;23.41;51.50;96684.96;619654;227;62886;-58
2023/04/30 07:14:40;;;;;;;;;;;;;;;23.42;50.34;96683.07;619450;228;66639;-58
2023/04/30 07:17:08;;;;;;;;;;;;;;;23.42;52.32;96686.55;619070;228;68517;-59
2023/04/30 07:19:38;;;;;;;;;;;;;;;23.42;53.05;96685.75;619179;228;65016;-58
2023/04/30 07:22:06;;;;;;;;;;;;;;;23.41;52.43;96689.53;618333;228;68797;-59
2023/04/30 07:24:34;;;;;;;;;;;;;;;23.40;52.32;96683.35;612026;229;69048;-59
2023/04/30 07:27:02;;;;;;;;;;;;;;;23.41;52.49;96684.17;617802;228;63056;-59
2023/04/30 07:29:30;;;;;;;;;;;;;;;23.40;51.34;96682.56;619297;228;68880;-58
2023/04/30 07:31:58;;;;;;;;;;;;;;;23.40;51.67;96682.56;618239;227;68346;-59
2023/04/30 07:34:26;;;;;;;;;;;;;;;23.40;51.08;96682.56;619169;228;65035;-59
2023/04/30 07:36:54;;;;;;;;;;;;;;;23.40;51.79;96690.61;614822;225;68691;-59
2023/04/30 07:39:21;;;;;;;;;;;;;;;23.40;53.09;96693.29;617874;229;68681;-59
2023/04/30 07:41:49;;;;;;;;;;;;;;;23.40;53.41;96690.61;619368;229;65021;-59
2023/04/30 07:44:16;;;;;;;;;;;;;;;23.38;51.20;96698.96;618365;228;69766;-59
2023/04/30 07:46:44;;;;;;;;;;;;;;;23.39;51.15;96699.75;621060;227;69467;-59
2023/04/30 07:49:11;;;;;;;;;;;;;;;23.38;50.46;96701.64;619283;229;65201;-59
2023/04/30 07:51:39;;;;;;;;;;;;;;;23.38;53.48;96706.19;619374;228;69140;-59
2023/04/30 07:54:06;;;;;;;;;;;;;;;23.38;51.40;96700.83;619110;229;66694;-58
2023/04/30 07:56:34;;;;;;;;;;;;;;;23.38;51.14;96700.83;619157;229;65066;-59
2023/04/30 07:59:02;;;;;;;;;;;;;;;23.37;51.22;96705.39;619214;227;68733;-59
2023/04/30 08:01:29;;;;;;;;;;;;;;;23.36;51.24;96714.54;619034;227;68638;-57
2023/04/30 08:03:57;;;;;;;;;;;;;;;23.36;53.73;96711.86;618565;229;65030;-59
2023/04/30 08:06:26;;;;;;;;;;;;;;;23.36;52.30;96713.75;618572;229;68870;-59
2023/04/30 08:08:53;;;;;;;;;;;;;;;23.34;51.14;96710.56;618524;227;68742;-59
2023/04/30 08:11:21;;;;;;;;;;;;;;;23.34;51.48;96705.98;618617;229;65007;-59
2023/04/30 08:13:48;;;;;;;;;;;;;;;23.35;52.88;96710.25;618491;229;68717;-60
2023/04/30 08:16:16;;;;;;;;;;;;;;;23.34;52.58;96705.98;618524;229;68658;-59
2023/04/30 08:18:45;;;;;;;;;;;;;;;23.34;52.60;96708.67;618734;229;65110;-59
2023/04/30 08:21:12;;;;;;;;;;;;;;;23.34;50.41;96705.20;619323;228;68853;-59
2023/04/30 08:23:40;;;;;;;;;;;;;;;23.34;53.91;96705.98;619688;228;66595;-59
2023/04/30 08:26:07;;;;;;;;;;;;;;;23.32;53.89;96702.00;619621;228;62940;-58
2023/04/30 08:28:35;;;;;;;;;;;;;;;23.33;52.87;96700.94;619349;229;66632;-59
2023/04/30 08:31:02;;;;;;;;;;;;;;;23.33;52.39;96703.61;619133;229;68148;-59
2023/04/30 08:33:30;;;;;;;;;;;;;;;23.32;51.50;96696.64;619163;227;65011;-59
2023/04/30 08:35:58;;;;;;;;;;;;;;;23.32;51.20;96707.37;619140;229;66218;-59
2023/04/30 08:38:26;;;;;;;;;;;;;;;23.31;52.75;96697.74;618756;228;68736;-59
2023/04/30 08:40:55;;;;;;;;;;;;;;;23.31;52.68;96695.06;619044;229;65084;-59
2023/04/30 08:43:23;;;;;;;;;;;;;;;23.31;53.46;96705.78;619144;229;68624;-60
2023/04/30 08:45:51;;;;;;;;;;;;;;;23.30;51.98;96690.77;619843;228;68323;-59
2023/04/30 08:48:18;;;;;;;;;;;;;;;23.30;52.36;96693.45;619231;228;63160;-59
2023/04/30 08:50:46;;;;;;;;;;;;;;;23.30;53.78;96699.63;618634;229;68488;-59
2023/04/30 08:53:16;;;;;;;;;;;;;;;23.29;52.11;96692.66;618717;229;68697;-59
2023/04/30 08:55:43;;;;;;;;;;;;;;;23.29;50.20;96697.23;618818;229;63054;-58
2023/04/30 08:58:11;;;;;;;;;;;;;;;23.29;53.42;96697.23;619813;228;68484;-59
2023/04/30 09:00:39;;;;;;;;;;;;;;;23.27;53.52;96689.47;619602;229;68756;-59
2023/04/30 09:03:07;;;;;;;;;;;;;;;23.26;51.42;96691.36;619803;228;64987;-59
2023/04/30 09:05:36;;;;;;;;;;;;;;;23.26;50.74;96688.67;619190;227;68972;-58
2023/04/30 09:08:04;;;;;;;;;;;;;;;23.27;52.10;96689.47;618628;228;66681;-59
2023/04/30 09:10:33;;;;;;;;;;;;;;;23.26;52.44;96682.52;618497;229;65102;-59
2023/04/30 09:13:08;;;;;;;;;;;;;;;23.26;54.65;96685.20;618937;227;68936;-59
2023/04/30 09:15:36;;;;;;;;;;;;;;;23.25;53.10;96683.63;619424;228;66662;-59
2023/04/30 09:18:11;;;;;;;;;;;;;;;23.23;51.31;96672.39;618591;229;65063;-59
2023/04/30 09:20:40;;;;;;;;;;;;;;;23.23;51.50;96680.44;618837;229;68893;-59
2023/04/30 09:23:08;;;;;;;;;;;;;;;23.23;52.73;96673.19;618327;229;68795;-59
2023/04/30 09:25:42;;;;;;;;;;;;;;;23.23;52.04;96672.39;616515;229;65076;-59
2023/04/30 09:28:12;;;;;;;;;;;;;;;23.23;52.85;96675.08;619266;229;48162;-58
2023/04/30 09:30:41;;;;;;;;;;;;;;;23.22;53.04;96678.86;619426;229;68637;-59
2023/04/30 09:33:09;;;;;;;;;;;;;;;23.21;53.01;96686.08;619413;229;62627;-59
2023/04/30 09:35:43;;;;;;;;;;;;;;;23.21;51.83;96679.92;618917;229;68868;-59
2023/04/30 09:38:30;;;;;;;;;;;;;;;23.20;51.52;96679.13;607776;229;68775;-59
2023/04/30 09:40:59;;;;;;;;;;;;;;;23.21;52.49;96674.56;620115;227;65185;-59
2023/04/30 09:43:30;;;;;;;;;;;;;;;23.21;52.83;96666.52;619398;228;66554;-59
2023/04/30 09:45:58;;;;;;;;;;;;;;;23.20;52.31;96671.09;619021;229;66484;-59
2023/04/30 09:48:31;;;;;;;;;;;;;;;23.20;54.25;96665.73;619213;229;65071;-58
2023/04/30 09:50:56;;;;;;;;;;;;;;;23.19;53.63;96666.83;618828;228;68876;-59
2023/04/30 09:53:23;;;;;;;;;;;;;;;23.19;52.65;96668.69;618588;229;68953;-59
2023/04/30 09:55:51;;;;;;;;;;;;;;;23.18;53.15;96659.06;618952;229;65027;-58
2023/04/30 09:58:19;;;;;;;;;;;;;;;23.18;51.96;96651.81;620475;228;66755;-58
2023/04/30 10:00:48;;;;;;;;;;;;;;;23.18;52.17;96659.06;618652;227;68726;-59
2023/04/30 10:03:16;;;;;;;;;;;;;;;23.17;52.51;96647.56;618578;229;62872;-59
2023/04/30 10:05:47;;;;;;;;;;;;;;;23.18;54.29;96648.34;618557;229;68788;-58
2023/04/30 10:08:17;;;;;;;;;;;;;;;23.16;53.66;96651.34;618542;227;68779;-58
2023/04/30 10:10:45;;;;;;;;;;;;;;;23.17;52.71;96650.23;618594;229;63041;-59
2023/04/30 10:13:14;;;;;;;;;;;;;;;23.17;53.45;96657.48;618629;229;68487;-59
2023/04/30 10:15:43;;;;;;;;;;;;;;;23.17;53.40;96647.56;618487;229;68702;-59
2023/04/30 10:18:25;;;;;;;;;;;;;;;23.16;54.07;96648.66;618296;228;65167;-58
2023/04/30 10:20:56;;;;;;;;;;;;;;;23.14;50.75;96645.47;618546;229;69014;-59
2023/04/30 10:23:24;;;;;;;;;;;;;;;23.16;54.31;96658.56;618873;229;68730;-59
2023/04/30 10:25:51;;;;;;;;;;;;;;;23.14;53.79;96647.36;619121;228;65108;-59
2023/04/30 10:28:19;;;;;;;;;;;;;;;23.14;52.96;96653.51;619676;229;68788;-58
2023/04/30 10:30:47;;;;;;;;;;;;;;;23.13;52.70;96646.53;619797;228;66784;-59
2023/04/30 10:33:16;;;;;;;;;;;;;;;23.12;52.99;96642.28;618970;228;62979;-59
2023/04/30 10:35:48;;;;;;;;;;;;;;;23.13;54.27;96635.02;619651;226;66698;-59
2023/04/30 10:38:20;;;;;;;;;;;;;;;23.13;53.46;96640.38;619058;226;66642;-58
2023/04/30 10:40:48;;;;;;;;;;;;;;;23.12;52.58;96642.28;618565;229;62987;-59
2023/04/30 10:43:18;;;;;;;;;;;;;;;23.12;53.30;96636.91;619168;227;68805;-58
2023/04/30 10:45:46;;;;;;;;;;;;;;;23.11;52.81;96626.48;619205;228;68549;-58
2023/04/30 10:48:22;;;;;;;;;;;;;;;23.11;54.26;96631.83;618537;229;65029;-58
2023/04/30 10:50:45;;;;;;;;;;;;;;;23.11;54.41;96632.66;618370;229;66664;-58
2023/04/30 10:53:17;;;;;;;;;;;;;;;23.09;52.83;96626.78;618652;229;68695;-59
2023/04/30 10:55:48;;;;;;;;;;;;;;;23.09;53.82;96629.47;619036;228;63152;-58
2023/04/30 10:58:33;;;;;;;;;;;;;;;23.08;53.10;96622.52;620731;228;68647;-58
2023/04/30 11:01:01;;;;;;;;;;;;;;;23.09;53.55;96626.00;619798;229;68468;-58
2023/04/30 11:03:29;;;;;;;;;;;;;;;23.08;53.21;96629.75;619292;229;63171;-58
2023/04/30 11:05:57;;;;;;;;;;;;;;;23.08;53.07;96627.89;620136;228;68826;-58
2023/04/30 11:08:35;;;;;;;;;;;;;;;23.06;51.82;96619.34;619248;228;69062;-58
2023/04/30 11:11:04;;;;;;;;;;;;;;;23.07;54.18;96620.91;618515;229;64956;-58
2023/04/30 11:13:44;;;;;;;;;;;;;;;23.07;52.78;96628.16;619467;228;66723;-58
2023/04/30 11:16:11;;;;;;;;;;;;;;;23.07;53.79;96625.48;619152;228;68812;-58
2023/04/30 11:18:45;;;;;;;;;;;;;;;23.07;53.45;96630.84;618621;228;65144;-58
2023/04/30 11:21:15;;;;;;;;;;;;;;;23.06;54.65;96616.66;618628;229;52510;-58
2023/04/30 11:23:43;;;;;;;;;;;;;;;23.06;51.55;96618.55;618892;229;66549;-58
2023/04/30 11:26:11;;;;;;;;;;;;;;;23.06;55.18;96610.51;619376;228;65041;-57
2023/04/30 11:28:38;;;;;;;;;;;;;;;23.05;53.18;96609.69;618606;228;68443;-57
2023/04/30 11:31:06;;;;;;;;;;;;;;;23.05;54.68;96607.00;620631;228;66649;-57
2023/04/30 11:33:34;;;;;;;;;;;;;;;23.03;53.12;96604.64;620180;228;62917;-58
2023/04/30 11:36:02;;;;;;;;;;;;;;;23.04;53.22;96605.42;618606;229;69018;-57
2023/04/30 11:38:31;;;;;;;;;;;;;;;23.03;54.50;96601.16;618533;227;68661;-58
2023/04/30 11:40:59;;;;;;;;;;;;;;;23.04;54.89;96602.75;618821;229;65912;-59
2023/04/30 11:43:30;;;;;;;;;;;;;;;23.03;53.89;96603.84;617686;229;66558;-59
2023/04/30 11:46:02;;;;;;;;;;;;;;;23.02;54.03;96599.55;619480;228;66760;-58
2023/04/30 11:48:34;;;;;;;;;;;;;;;23.02;53.67;96594.20;619490;229;65103;-59
2023/04/30 11:51:06;;;;;;;;;;;;;;;23.01;53.21;96601.45;618913;228;68757;-59
2023/04/30 11:53:33;;;;;;;;;;;;;;;23.01;52.87;96595.30;618583;229;66617;-59
2023/04/30 11:56:04;;;;;;;;;;;;;;;23.00;54.13;96586.47;619794;227;63785;-59
2023/04/30 11:58:36;;;;;;;;;;;;;;;23.01;54.40;96590.73;621418;227;68797;-58
2023/04/30 12:01:08;;;;;;;;;;;;;;;23.01;52.82;96592.62;618955;229;68672;-59
2023/04/30 12:03:41;;;;;;;;;;;;;;;23.01;54.69;96589.94;618611;229;66524;-59
2023/04/30 12:06:13;;;;;;;;;;;;;;;22.99;53.42;96590.22;612768;229;68851;-59
2023/04/30 12:08:41;;;;;;;;;;;;;;;23.00;53.52;96593.72;616691;229;68688;-59
2023/04/30 12:11:10;;;;;;;;;;;;;;;22.99;53.41;96590.22;619743;228;62963;-59
2023/04/30 12:13:37;;;;;;;;;;;;;;;22.99;54.40;96590.22;618222;228;66573;-58
2023/04/30 12:16:05;;;;;;;;;;;;;;;22.98;52.60;96587.84;618585;229;68508;-59
2023/04/30 12:18:33;;;;;;;;;;;;;;;22.98;53.07;96585.17;621205;228;65049;-59
2023/04/30 12:21:00;;;;;;;;;;;;;;;22.97;53.98;96580.88;619403;228;68773;-59
2023/04/30 12:23:28;;;;;;;;;;;;;;;22.97;53.58;96588.92;618700;228;69183;-59
2023/04/30 12:25:57;;;;;;;;;;;;;;;22.97;53.59;96586.23;618533;229;65193;-59
2023/04/30 12:28:24;;;;;;;;;;;;;;;22.95;53.15;96594.56;619401;227;69610;-59
2023/04/30 12:30:53;;;;;;;;;;;;;;;22.96;54.16;96587.34;619277;228;68876;-59
2023/04/30 12:33:20;;;;;;;;;;;;;;;22.95;52.95;96589.20;618730;228;65021;-59
2023/04/30 12:35:48;;;;;;;;;;;;;;;22.96;55.23;96579.30;618810;228;68577;-59
2023/04/30 12:38:17;;;;;;;;;;;;;;;22.94;53.73;96574.19;619554;228;68370;-59
2023/04/30 12:40:48;;;;;;;;;;;;;;;22.95;54.78;96573.13;619902;228;65162;-59
2023/04/30 12:43:17;;;;;;;;;;;;;;;22.95;54.66;96569.66;619183;229;66024;-59
2023/04/30 12:45:45;;;;;;;;;;;;;;;22.94;53.61;96568.04;619087;227;68474;-58
2023/04/30 12:48:14;;;;;;;;;;;;;;;22.92;53.28;96562.99;619305;228;62900;-58
2023/04/30 12:50:42;;;;;;;;;;;;;;;22.93;53.06;96569.14;618733;229;66630;-58
2023/04/30 12:53:11;;;;;;;;;;;;;;;22.94;53.80;96568.04;619417;228;50478;-59
2023/04/30 12:55:39;;;;;;;;;;;;;;;22.92;54.31;96565.67;618832;228;65007;-58